Time;durP1;ratioP1;P1;durP2;ratioP2;P2;SDS_P1;SDS_P2;PMS_P1;PMS_P2;Temp;Humidity;BMP_temperature;BMP_pressure;BME280_temperature;BME280_humidity;BME280_pressure;Samples;Min_cycle;Max_cycle;Signal;HPM_P1;HPM_P2
2022/10/09 00:02:13;;;;;;;32.72;17.20;;;;;;;;;;6122136;23;20219;-89
2022/10/09 00:05:19;;;;;;;34.63;16.90;;;;;;;;;;6123739;23;20193;-91
2022/10/09 00:08:27;;;;;;;37.88;19.30;;;;;;;;;;6121872;23;20177;-90
2022/10/09 00:11:32;;;;;;;37.30;19.80;;;;;;;;;;6122204;23;20230;-90
2022/10/09 00:14:38;;;;;;;32.50;17.42;;;;;;;;;;6121782;23;20209;-91
2022/10/09 00:17:43;;;;;;;37.35;17.48;;;;;;;;;;6119403;23;20213;-91
2022/10/09 00:20:49;;;;;;;42.45;17.40;;;;;;;;;;6121919;23;20177;-90
2022/10/09 00:23:57;;;;;;;36.50;16.60;;;;;;;;;;6120634;23;20173;-90
2022/10/09 00:27:02;;;;;;;33.47;17.60;;;;;;;;;;6120763;23;20170;-91
2022/10/09 00:30:09;;;;;;;36.10;17.17;;;;;;;;;;6121382;23;20212;-89
2022/10/09 00:33:14;;;;;;;34.42;16.55;;;;;;;;;;6120087;23;20226;-91
2022/10/09 00:36:21;;;;;;;35.03;17.65;;;;;;;;;;6120979;23;20192;-89
2022/10/09 00:39:29;;;;;;;32.50;15.32;;;;;;;;;;6121551;23;20181;-87
2022/10/09 00:42:35;;;;;;;23.70;12.80;;;;;;;;;;6120227;23;20324;-89
2022/10/09 00:45:42;;;;;;;30.70;14.02;;;;;;;;;;6120855;23;20168;-90
2022/10/09 00:48:48;;;;;;;27.35;13.88;;;;;;;;;;6122100;23;20209;-91
2022/10/09 00:51:55;;;;;;;27.20;13.30;;;;;;;;;;6121330;23;20248;-90
2022/10/09 00:55:02;;;;;;;29.13;14.23;;;;;;;;;;6121995;23;20169;-92
2022/10/09 00:58:08;;;;;;;24.75;13.45;;;;;;;;;;6120860;23;20169;-90
2022/10/09 01:01:13;;;;;;;32.40;12.13;;;;;;;;;;6121684;23;20320;-91
2022/10/09 01:04:19;;;;;;;21.35;11.95;;;;;;;;;;6121185;23;20172;-90
2022/10/09 01:07:36;;;;;;;24.23;11.63;;;;;;;;;;6119969;23;20513;-90
2022/10/09 01:10:45;;;;;;;24.23;12.10;;;;;;;;;;6121984;23;20177;-91
2022/10/09 01:13:53;;;;;;;19.38;10.60;;;;;;;;;;6119976;23;20169;-90
2022/10/09 01:17:03;;;;;;;26.23;11.00;;;;;;;;;;6120294;23;20173;-89
2022/10/09 01:20:26;;;;;;;16.58;9.38;;;;;;;;;;6121221;23;20248;-91
2022/10/09 01:23:43;;;;;;;20.92;9.43;;;;;;;;;;6121819;23;20157;-92
2022/10/09 01:26:55;;;;;;;17.27;9.07;;;;;;;;;;6121491;23;20217;-92
2022/10/09 01:30:03;;;;;;;18.88;8.50;;;;;;;;;;6122783;23;20170;-91
2022/10/09 01:33:08;;;;;;;17.65;8.13;;;;;;;;;;6121582;23;20218;-91
2022/10/09 01:36:14;;;;;;;16.05;7.80;;;;;;;;;;6120766;23;20189;-89
2022/10/09 01:39:20;;;;;;;14.20;7.00;;;;;;;;;;6122644;23;20250;-90
2022/10/09 01:42:28;;;;;;;12.63;6.30;;;;;;;;;;6124243;23;20196;-89
2022/10/09 01:45:38;;;;;;;14.95;7.68;;;;;;;;;;6124175;23;20235;-90
2022/10/09 01:48:44;;;;;;;14.57;6.82;;;;;;;;;;6123594;23;20169;-89
2022/10/09 01:51:52;;;;;;;14.00;6.75;;;;;;;;;;6120490;23;20190;-90
2022/10/09 01:55:04;;;;;;;12.13;6.22;;;;;;;;;;6122164;23;20184;-89
2022/10/09 01:58:13;;;;;;;13.88;6.30;;;;;;;;;;6121342;23;20177;-89
2022/10/09 02:01:20;;;;;;;12.77;6.55;;;;;;;;;;6122730;23;20166;-90
2022/10/09 02:04:26;;;;;;;11.05;6.10;;;;;;;;;;6123043;23;20213;-89
2022/10/09 02:07:32;;;;;;;12.95;6.85;;;;;;;;;;6121740;23;20166;-88
2022/10/09 02:10:38;;;;;;;20.77;7.32;;;;;;;;;;6123054;23;20181;-88
2022/10/09 02:13:51;;;;;;;18.25;7.57;;;;;;;;;;6123559;23;20492;-89
2022/10/09 02:17:02;;;;;;;18.83;7.15;;;;;;;;;;6123585;23;20217;-90
2022/10/09 02:20:10;;;;;;;20.20;8.60;;;;;;;;;;6122338;23;20213;-88
2022/10/09 02:23:15;;;;;;;22.30;7.93;;;;;;;;;;6122437;23;20176;-90
2022/10/09 02:26:26;;;;;;;47.88;8.20;;;;;;;;;;6122829;23;20169;-91
2022/10/09 02:29:32;;;;;;;46.42;8.77;;;;;;;;;;6123635;23;20298;-91
2022/10/09 02:32:38;;;;;;;20.88;7.13;;;;;;;;;;6121655;23;20177;-89
2022/10/09 02:35:44;;;;;;;18.85;7.88;;;;;;;;;;6120961;23;20219;-88
2022/10/09 02:38:49;;;;;;;80.97;9.95;;;;;;;;;;6121035;23;20157;-89
2022/10/09 02:41:57;;;;;;;35.65;9.20;;;;;;;;;;6122642;23;20188;-91
2022/10/09 02:45:04;;;;;;;15.95;8.43;;;;;;;;;;6123112;23;20197;-89
2022/10/09 02:48:10;;;;;;;18.02;7.90;;;;;;;;;;6122142;23;20168;-88
2022/10/09 02:51:15;;;;;;;15.55;7.20;;;;;;;;;;6119606;23;20189;-90
2022/10/09 02:54:20;;;;;;;10.27;6.43;;;;;;;;;;6119778;23;20176;-92
2022/10/09 02:57:25;;;;;;;15.45;5.95;;;;;;;;;;6121143;23;20152;-90
2022/10/09 03:00:31;;;;;;;12.88;6.22;;;;;;;;;;6120837;23;20169;-89
2022/10/09 03:03:37;;;;;;;19.38;6.88;;;;;;;;;;6119287;23;20298;-90
2022/10/09 03:06:42;;;;;;;12.07;6.75;;;;;;;;;;6122111;23;20161;-91
2022/10/09 03:09:47;;;;;;;13.25;6.95;;;;;;;;;;6119774;23;20164;-90
2022/10/09 03:12:53;;;;;;;12.13;6.40;;;;;;;;;;6120960;23;20177;-91
2022/10/09 03:16:04;;;;;;;12.05;6.50;;;;;;;;;;6121249;23;20177;-88
2022/10/09 03:19:10;;;;;;;14.70;7.07;;;;;;;;;;6120584;23;20172;-89
2022/10/09 03:22:15;;;;;;;18.17;7.28;;;;;;;;;;6119851;23;20535;-89
2022/10/09 03:25:21;;;;;;;62.92;8.38;;;;;;;;;;6118222;23;20305;-89
2022/10/09 03:28:26;;;;;;;12.45;6.90;;;;;;;;;;6119330;23;20222;-91
2022/10/09 03:31:33;;;;;;;59.63;8.57;;;;;;;;;;6121731;23;20165;-89
2022/10/09 03:34:39;;;;;;;21.58;7.57;;;;;;;;;;6122489;23;20176;-89
2022/10/09 03:37:47;;;;;;;22.15;7.18;;;;;;;;;;6122529;23;20737;-87
2022/10/09 03:40:52;;;;;;;36.17;7.72;;;;;;;;;;6120994;23;20266;-89
2022/10/09 03:43:58;;;;;;;33.15;7.53;;;;;;;;;;6120917;23;20193;-90
2022/10/09 03:47:05;;;;;;;28.67;7.53;;;;;;;;;;6122162;23;20148;-89
2022/10/09 03:50:11;;;;;;;58.40;7.47;;;;;;;;;;6124143;23;20461;-90
2022/10/09 03:53:16;;;;;;;25.42;8.02;;;;;;;;;;6123542;23;20173;-90
2022/10/09 03:56:22;;;;;;;60.40;8.88;;;;;;;;;;6122643;23;20173;-89
2022/10/09 03:59:27;;;;;;;21.33;8.30;;;;;;;;;;6121648;23;20157;-90
2022/10/09 04:02:37;;;;;;;16.15;7.82;;;;;;;;;;6121272;23;20271;-90
2022/10/09 04:05:42;;;;;;;23.80;8.45;;;;;;;;;;6122746;23;20229;-90
2022/10/09 04:08:47;;;;;;;26.85;7.70;;;;;;;;;;6122620;23;20657;-89
2022/10/09 04:11:52;;;;;;;80.38;8.95;;;;;;;;;;6121990;23;20177;-90
2022/10/09 04:14:57;;;;;;;38.40;8.60;;;;;;;;;;6122609;23;20177;-91
2022/10/09 04:18:04;;;;;;;19.25;8.88;;;;;;;;;;6121025;23;20165;-89
2022/10/09 04:21:11;;;;;;;23.42;8.90;;;;;;;;;;6121352;23;20169;-90
2022/10/09 04:24:20;;;;;;;66.15;9.77;;;;;;;;;;6119780;23;20196;-91
2022/10/09 04:27:25;;;;;;;21.02;8.27;;;;;;;;;;6120504;23;20169;-89
2022/10/09 04:30:31;;;;;;;21.70;7.55;;;;;;;;;;6121717;23;20170;-88
2022/10/09 04:33:37;;;;;;;19.25;7.80;;;;;;;;;;6118747;23;20186;-89
2022/10/09 04:36:42;;;;;;;20.55;7.95;;;;;;;;;;6120961;23;20180;-91
2022/10/09 04:39:47;;;;;;;33.88;8.60;;;;;;;;;;6121374;23;20244;-89
2022/10/09 04:42:52;;;;;;;24.02;8.32;;;;;;;;;;6119841;23;20192;-89
2022/10/09 04:45:58;;;;;;;16.83;8.10;;;;;;;;;;6120168;23;20193;-88
2022/10/09 04:49:05;;;;;;;14.35;6.97;;;;;;;;;;6120546;23;20174;-89
2022/10/09 04:52:11;;;;;;;17.05;7.82;;;;;;;;;;6119639;23;20177;-89
2022/10/09 04:55:16;;;;;;;12.38;6.60;;;;;;;;;;6119916;23;20617;-91
2022/10/09 04:58:21;;;;;;;21.17;7.35;;;;;;;;;;6119813;23;20168;-90
2022/10/09 05:01:28;;;;;;;13.05;6.90;;;;;;;;;;6117934;23;20281;-89
2022/10/09 05:04:39;;;;;;;19.27;7.50;;;;;;;;;;6119849;23;20166;-90
2022/10/09 05:07:44;;;;;;;19.55;7.43;;;;;;;;;;6118003;23;20220;-89
2022/10/09 05:10:49;;;;;;;16.55;7.25;;;;;;;;;;6120431;23;20170;-90
2022/10/09 05:13:56;;;;;;;20.15;7.57;;;;;;;;;;6119969;23;20165;-91
2022/10/09 05:17:04;;;;;;;16.05;7.03;;;;;;;;;;6120241;23;20161;-88
2022/10/09 05:20:11;;;;;;;13.80;6.95;;;;;;;;;;6119785;23;20165;-90
2022/10/09 05:23:16;;;;;;;53.35;7.53;;;;;;;;;;6119687;23;20196;-89
2022/10/09 05:26:22;;;;;;;24.23;6.75;;;;;;;;;;6121494;23;20153;-91
2022/10/09 05:29:27;;;;;;;56.55;7.93;;;;;;;;;;6120574;23;20165;-90
2022/10/09 05:32:33;;;;;;;13.88;6.63;;;;;;;;;;6121144;23;20169;-90
2022/10/09 05:35:40;;;;;;;13.48;6.88;;;;;;;;;;6121084;23;20181;-90
2022/10/09 05:38:46;;;;;;;14.82;6.65;;;;;;;;;;6119840;23;20301;-89
2022/10/09 05:41:52;;;;;;;32.40;7.05;;;;;;;;;;6119576;23;20185;-90
2022/10/09 05:44:57;;;;;;;19.30;6.45;;;;;;;;;;6119847;23;20216;-91
2022/10/09 05:48:03;;;;;;;11.90;6.03;;;;;;;;;;6119105;23;20166;-90
2022/10/09 05:51:14;;;;;;;10.25;5.30;;;;;;;;;;6118103;23;20250;-90
2022/10/09 05:54:19;;;;;;;11.70;6.47;;;;;;;;;;6119143;23;20185;-90
2022/10/09 05:57:24;;;;;;;13.45;5.28;;;;;;;;;;6116475;23;20166;-92
2022/10/09 06:00:30;;;;;;;20.57;6.33;;;;;;;;;;6118539;23;20620;-90
2022/10/09 06:03:35;;;;;;;8.20;5.05;;;;;;;;;;6119211;23;20528;-90
2022/10/09 06:06:42;;;;;;;9.33;5.33;;;;;;;;;;6116435;23;20177;-90
2022/10/09 06:09:47;;;;;;;7.57;4.68;;;;;;;;;;6118995;23;20161;-89
2022/10/09 06:12:53;;;;;;;15.25;5.82;;;;;;;;;;6118947;23;20184;-90
2022/10/09 06:15:58;;;;;;;7.25;4.78;;;;;;;;;;6120008;23;20281;-90
2022/10/09 06:19:04;;;;;;;9.65;4.35;;;;;;;;;;6120131;23;20168;-90
2022/10/09 06:22:11;;;;;;;11.65;5.70;;;;;;;;;;6118627;23;20689;-89
2022/10/09 06:25:17;;;;;;;10.07;4.97;;;;;;;;;;6121306;23;20181;-89
2022/10/09 06:28:23;;;;;;;9.52;5.18;;;;;;;;;;6120515;23;20173;-90
2022/10/09 06:31:29;;;;;;;18.45;5.38;;;;;;;;;;6120831;23;20169;-89
2022/10/09 06:34:34;;;;;;;8.32;4.90;;;;;;;;;;6120587;23;20448;-89
2022/10/09 06:37:41;;;;;;;9.57;4.70;;;;;;;;;;6120806;23;20196;-91
2022/10/09 06:40:47;;;;;;;10.80;4.68;;;;;;;;;;6118733;23;20256;-90
2022/10/09 06:43:53;;;;;;;11.77;4.60;;;;;;;;;;6119392;23;20217;-90
2022/10/09 06:46:59;;;;;;;10.82;5.15;;;;;;;;;;6118362;23;20173;-90
2022/10/09 06:50:05;;;;;;;8.88;4.95;;;;;;;;;;6121367;23;20165;-90
2022/10/09 06:53:12;;;;;;;9.77;4.88;;;;;;;;;;6120278;23;20164;-91
2022/10/09 06:56:19;;;;;;;9.43;5.28;;;;;;;;;;6121208;23;20176;-89
2022/10/09 06:59:25;;;;;;;11.80;4.55;;;;;;;;;;6119409;23;20197;-89
2022/10/09 07:02:32;;;;;;;9.23;4.93;;;;;;;;;;6120697;23;20471;-90
2022/10/09 07:05:37;;;;;;;9.98;5.07;;;;;;;;;;6121334;23;20275;-91
2022/10/09 07:08:48;;;;;;;9.05;4.53;;;;;;;;;;6119131;23;20290;-91
2022/10/09 07:11:53;;;;;;;8.80;4.18;;;;;;;;;;6122225;23;20178;-89
2022/10/09 07:14:59;;;;;;;9.38;3.40;;;;;;;;;;6119901;23;20177;-90
2022/10/09 07:21:24;;;;;;;8.02;3.95;;;;;;;;;;6122134;23;20157;-90
2022/10/09 07:24:31;;;;;;;9.05;3.25;;;;;;;;;;6119012;23;20563;-93
2022/10/09 07:27:36;;;;;;;8.00;3.70;;;;;;;;;;6119083;23;20177;-91
2022/10/09 07:30:42;;;;;;;7.25;3.38;;;;;;;;;;6119270;23;20174;-89
2022/10/09 07:33:48;;;;;;;8.65;3.67;;;;;;;;;;6119910;23;20185;-90
2022/10/09 07:36:54;;;;;;;6.70;3.13;;;;;;;;;;6121261;23;20212;-90
2022/10/09 07:40:01;;;;;;;8.43;4.07;;;;;;;;;;6120887;23;20217;-91
2022/10/09 07:43:06;;;;;;;5.25;3.15;;;;;;;;;;6118173;23;20232;-90
2022/10/09 07:46:12;;;;;;;9.73;4.88;;;;;;;;;;6120560;23;20189;-91
2022/10/09 07:49:19;;;;;;;9.23;3.70;;;;;;;;;;6140133;23;20228;-90
2022/10/09 07:52:24;;;;;;;10.63;3.88;;;;;;;;;;6119146;23;20492;-89
2022/10/09 07:55:31;;;;;;;8.55;3.60;;;;;;;;;;6120947;23;20178;-91
2022/10/09 07:58:36;;;;;;;8.57;3.13;;;;;;;;;;6118752;23;20233;-91
2022/10/09 08:01:43;;;;;;;12.02;3.72;;;;;;;;;;6119600;23;20214;-90
2022/10/09 08:04:48;;;;;;;10.40;3.30;;;;;;;;;;6120721;23;20196;-87
2022/10/09 08:07:53;;;;;;;6.55;2.90;;;;;;;;;;6119843;23;20569;-88
2022/10/09 08:11:00;;;;;;;7.05;3.10;;;;;;;;;;6120227;23;20168;-91
2022/10/09 08:14:05;;;;;;;8.65;2.90;;;;;;;;;;6118359;23;20683;-91
2022/10/09 08:17:11;;;;;;;5.93;2.65;;;;;;;;;;6120264;23;20157;-89
2022/10/09 08:20:16;;;;;;;16.92;3.97;;;;;;;;;;6118654;23;20684;-86
2022/10/09 08:23:21;;;;;;;12.02;3.80;;;;;;;;;;6118395;23;20200;-92
2022/10/09 08:26:29;;;;;;;6.35;2.97;;;;;;;;;;6118709;23;20169;-92
2022/10/09 08:29:35;;;;;;;6.63;3.40;;;;;;;;;;6119172;23;20165;-88
2022/10/09 08:32:40;;;;;;;7.60;2.88;;;;;;;;;;6120372;23;20231;-90
2022/10/09 08:35:46;;;;;;;11.95;6.30;;;;;;;;;;6119067;23;20172;-91
2022/10/09 08:38:51;;;;;;;7.55;2.00;;;;;;;;;;6123539;23;20172;-89
2022/10/09 08:42:02;;;;;;;5.97;2.38;;;;;;;;;;6120607;23;20216;-90
2022/10/09 08:45:16;;;;;;;5.45;2.25;;;;;;;;;;6120540;23;20197;-91
2022/10/09 08:48:32;;;;;;;6.18;1.95;;;;;;;;;;6121020;23;20165;-92
2022/10/09 08:51:39;;;;;;;3.90;1.80;;;;;;;;;;6119713;23;20177;-91
2022/10/09 08:54:52;;;;;;;6.85;2.10;;;;;;;;;;6123246;23;20201;-92
2022/10/09 08:58:27;;;;;;;5.90;1.38;;;;;;;;;;6138217;23;20180;-89
2022/10/09 09:01:36;;;;;;;12.68;3.05;;;;;;;;;;6121542;23;20157;-90
2022/10/09 09:04:47;;;;;;;4.70;1.60;;;;;;;;;;6122134;23;20205;-89
2022/10/09 09:07:56;;;;;;;7.55;1.42;;;;;;;;;;6120684;23;20185;-89
2022/10/09 09:11:14;;;;;;;5.10;1.35;;;;;;;;;;6119354;23;20254;-90
2022/10/09 09:14:37;;;;;;;7.43;1.27;;;;;;;;;;6122092;23;20201;-89
2022/10/09 09:17:47;;;;;;;6.97;2.00;;;;;;;;;;6121253;23;20261;-90
2022/10/09 09:20:53;;;;;;;2.83;1.25;;;;;;;;;;6119193;23;20234;-91
2022/10/09 09:24:22;;;;;;;5.22;1.67;;;;;;;;;;6119652;23;20201;-89
2022/10/09 09:27:30;;;;;;;3.28;1.23;;;;;;;;;;6121271;23;20164;-90
2022/10/09 09:30:43;;;;;;;10.73;1.60;;;;;;;;;;6121739;23;20650;-92
2022/10/09 09:33:54;;;;;;;11.40;2.40;;;;;;;;;;6120958;23;20174;-90
2022/10/09 09:37:00;;;;;;;6.32;1.90;;;;;;;;;;6108293;23;20190;-89
2022/10/09 09:40:09;;;;;;;3.95;1.40;;;;;;;;;;6108456;23;20174;-89
2022/10/09 09:43:17;;;;;;;5.32;1.77;;;;;;;;;;6108054;23;20158;-89
2022/10/09 09:46:30;;;;;;;5.63;1.60;;;;;;;;;;6108738;23;20178;-90
2022/10/09 09:49:35;;;;;;;8.10;1.77;;;;;;;;;;6109039;23;20170;-89
2022/10/09 09:52:42;;;;;;;4.80;1.63;;;;;;;;;;6107969;23;20186;-87
2022/10/09 09:55:52;;;;;;;9.20;1.73;;;;;;;;;;6105408;23;20227;-89
2022/10/09 09:58:57;;;;;;;3.97;1.65;;;;;;;;;;6105900;23;20170;-88
2022/10/09 10:02:10;;;;;;;3.45;1.20;;;;;;;;;;6106551;23;20177;-91
2022/10/09 10:05:16;;;;;;;6.15;1.52;;;;;;;;;;6107783;23;20178;-88
2022/10/09 10:08:26;;;;;;;6.40;1.92;;;;;;;;;;6108131;23;20173;-89
2022/10/09 10:11:33;;;;;;;4.57;1.60;;;;;;;;;;6108141;23;20173;-89
2022/10/09 10:14:38;;;;;;;6.88;1.60;;;;;;;;;;6108959;23;20222;-88
2022/10/09 10:17:45;;;;;;;4.85;1.25;;;;;;;;;;6109434;23;20512;-87
2022/10/09 10:20:51;;;;;;;7.35;1.70;;;;;;;;;;6110845;23;20496;-88
2022/10/09 10:24:00;;;;;;;5.65;1.50;;;;;;;;;;6107140;23;20197;-89
2022/10/09 10:27:07;;;;;;;5.43;1.80;;;;;;;;;;6107925;23;20174;-89
2022/10/09 10:30:13;;;;;;;5.10;1.55;;;;;;;;;;6108791;23;20174;-90
2022/10/09 10:33:23;;;;;;;4.57;1.42;;;;;;;;;;6109045;23;20169;-90
2022/10/09 10:36:29;;;;;;;4.13;1.40;;;;;;;;;;6118121;23;20193;-91
2022/10/09 10:39:37;;;;;;;10.02;1.73;;;;;;;;;;6121389;23;20245;-90
2022/10/09 10:42:48;;;;;;;5.47;1.73;;;;;;;;;;6120051;23;20169;-90
2022/10/09 10:45:58;;;;;;;4.40;1.40;;;;;;;;;;6123685;23;20196;-90
2022/10/09 10:49:05;;;;;;;4.30;1.73;;;;;;;;;;6124973;23;20218;-93
2022/10/09 10:52:17;;;;;;;6.35;1.75;;;;;;;;;;6122608;23;20177;-91
2022/10/09 10:55:26;;;;;;;5.30;1.40;;;;;;;;;;6120645;23;20342;-90
2022/10/09 10:58:33;;;;;;;4.07;1.30;;;;;;;;;;6119617;23;20245;-89
2022/10/09 11:01:43;;;;;;;6.65;1.40;;;;;;;;;;6119719;23;20206;-89
2022/10/09 11:04:54;;;;;;;5.35;1.40;;;;;;;;;;6122039;23;20666;-89
2022/10/09 11:08:04;;;;;;;5.32;1.77;;;;;;;;;;6121961;23;20316;-91
2022/10/09 11:11:15;;;;;;;4.03;1.30;;;;;;;;;;6118466;23;20241;-90
2022/10/09 11:14:33;;;;;;;3.35;1.17;;;;;;;;;;6121155;23;20154;-86
2022/10/09 11:17:44;;;;;;;4.43;1.38;;;;;;;;;;6118087;23;20172;-89
2022/10/09 11:21:00;;;;;;;4.18;1.05;;;;;;;;;;6118955;23;20169;-90
2022/10/09 11:24:14;;;;;;;8.48;1.20;;;;;;;;;;6118749;23;20174;-89
2022/10/09 11:27:22;;;;;;;3.65;1.10;;;;;;;;;;6117646;23;20177;-88
2022/10/09 11:30:29;;;;;;;5.03;1.27;;;;;;;;;;6116879;23;20535;-90
2022/10/09 11:33:36;;;;;;;4.25;1.45;;;;;;;;;;6120174;23;20233;-91
2022/10/09 11:36:43;;;;;;;3.47;1.17;;;;;;;;;;6118683;23;20192;-90
2022/10/09 11:39:49;;;;;;;2.85;1.00;;;;;;;;;;6119248;23;20170;-89
2022/10/09 11:42:56;;;;;;;3.85;1.30;;;;;;;;;;6116905;23;20152;-89
2022/10/09 11:46:03;;;;;;;3.05;1.20;;;;;;;;;;6121036;23;20188;-91
2022/10/09 11:49:13;;;;;;;4.18;1.30;;;;;;;;;;6119233;23;20241;-90
2022/10/09 11:52:26;;;;;;;5.18;1.20;;;;;;;;;;6123732;23;20494;-89
2022/10/09 11:55:32;;;;;;;2.80;1.15;;;;;;;;;;6118235;23;20263;-91
2022/10/09 11:58:38;;;;;;;3.92;1.30;;;;;;;;;;6140091;23;20170;-89
2022/10/09 12:01:46;;;;;;;9.52;1.40;;;;;;;;;;6124445;23;20177;-88
2022/10/09 12:04:51;;;;;;;2.67;1.00;;;;;;;;;;6126720;23;20245;-90
2022/10/09 12:08:06;;;;;;;5.32;1.35;;;;;;;;;;6121696;23;20217;-90
2022/10/09 12:11:19;;;;;;;7.53;1.25;;;;;;;;;;6123615;23;20178;-90
2022/10/09 12:14:25;;;;;;;4.55;1.38;;;;;;;;;;6122710;23;20173;-89
2022/10/09 12:17:34;;;;;;;3.85;1.20;;;;;;;;;;6117949;23;20157;-90
2022/10/09 12:20:41;;;;;;;2.80;1.40;;;;;;;;;;6120481;23;20197;-90
2022/10/09 12:24:01;;;;;;;6.75;1.13;;;;;;;;;;6122910;23;20591;-91
2022/10/09 12:27:08;;;;;;;3.97;1.20;;;;;;;;;;6117306;23;20174;-89
2022/10/09 12:30:19;;;;;;;4.40;1.50;;;;;;;;;;6116872;23;20725;-91
2022/10/09 12:33:27;;;;;;;5.32;1.60;;;;;;;;;;6118318;23;20721;-90
2022/10/09 12:36:33;;;;;;;5.82;1.40;;;;;;;;;;6118890;23;20189;-91
2022/10/09 12:39:41;;;;;;;4.57;1.25;;;;;;;;;;6119306;23;20173;-90
2022/10/09 12:42:50;;;;;;;2.90;1.40;;;;;;;;;;6119799;23;20169;-90
2022/10/09 12:45:55;;;;;;;5.93;1.23;;;;;;;;;;6117211;23;20196;-89
2022/10/09 12:49:00;;;;;;;4.35;1.20;;;;;;;;;;6119425;23;20177;-91
2022/10/09 12:52:14;;;;;;;4.75;1.33;;;;;;;;;;6125247;23;20177;-89
2022/10/09 12:55:25;;;;;;;2.15;1.05;;;;;;;;;;6124547;23;20197;-88
2022/10/09 12:58:34;;;;;;;3.45;1.10;;;;;;;;;;6125260;23;20205;-91
2022/10/09 13:01:40;;;;;;;2.45;1.20;;;;;;;;;;6120256;23;20209;-92
2022/10/09 13:04:57;;;;;;;7.45;1.80;;;;;;;;;;6121043;23;20197;-91
2022/10/09 13:08:02;;;;;;;6.40;1.40;;;;;;;;;;6121998;23;20186;-91
2022/10/09 13:11:12;;;;;;;4.45;1.20;;;;;;;;;;6120458;23;20184;-88
2022/10/09 13:14:36;;;;;;;3.70;1.13;;;;;;;;;;6122074;23;20157;-92
2022/10/09 13:17:42;;;;;;;2.58;1.30;;;;;;;;;;6119816;23;20173;-90
2022/10/09 13:20:47;;;;;;;6.88;1.42;;;;;;;;;;6120684;23;20190;-90
2022/10/09 13:23:55;;;;;;;5.32;1.60;;;;;;;;;;6119970;23;20173;-90
2022/10/09 13:27:00;;;;;;;4.10;1.40;;;;;;;;;;6120718;23;20194;-91
2022/10/09 13:30:09;;;;;;;3.72;1.48;;;;;;;;;;6119562;23;20164;-91
2022/10/09 13:33:15;;;;;;;5.72;1.30;;;;;;;;;;6120622;23;20169;-90
2022/10/09 13:36:20;;;;;;;4.20;1.15;;;;;;;;;;6118909;23;20192;-91
2022/10/09 13:39:26;;;;;;;4.05;1.50;;;;;;;;;;6122167;23;20174;-91
2022/10/09 13:42:35;;;;;;;3.53;1.13;;;;;;;;;;6121520;23;20188;-90
2022/10/09 13:45:42;;;;;;;7.47;1.48;;;;;;;;;;6120967;23;20217;-92
2022/10/09 13:48:47;;;;;;;3.83;1.50;;;;;;;;;;6120431;23;20177;-91
2022/10/09 13:51:52;;;;;;;3.65;1.50;;;;;;;;;;6122475;23;20194;-91
2022/10/09 13:54:58;;;;;;;4.47;1.33;;;;;;;;;;6121102;23;20168;-91
2022/10/09 13:58:03;;;;;;;4.10;1.23;;;;;;;;;;6120144;23;20190;-92
2022/10/09 14:01:10;;;;;;;3.75;1.38;;;;;;;;;;6121362;23;20231;-91
2022/10/09 14:04:15;;;;;;;5.80;1.50;;;;;;;;;;6121883;23;20169;-91
2022/10/09 14:07:21;;;;;;;3.55;1.20;;;;;;;;;;6122217;23;20248;-91
2022/10/09 14:10:26;;;;;;;4.95;1.23;;;;;;;;;;6122117;23;20218;-90
2022/10/09 14:13:32;;;;;;;6.53;2.08;;;;;;;;;;6121927;23;20221;-89
2022/10/09 14:16:38;;;;;;;5.50;1.40;;;;;;;;;;6121537;23;20181;-90
2022/10/09 14:19:43;;;;;;;3.47;1.52;;;;;;;;;;6122014;23;20279;-90
2022/10/09 14:22:49;;;;;;;5.40;1.20;;;;;;;;;;6126128;23;20244;-91
2022/10/09 14:26:07;;;;;;;4.75;1.40;;;;;;;;;;6121734;23;20266;-91
2022/10/09 14:29:12;;;;;;;3.47;1.30;;;;;;;;;;6122383;23;20169;-90
2022/10/09 14:32:20;;;;;;;2.92;1.27;;;;;;;;;;6122460;23;20481;-90
2022/10/09 14:35:25;;;;;;;8.20;3.45;;;;;;;;;;6123941;23;20165;-93
2022/10/09 14:38:30;;;;;;;17.88;8.35;;;;;;;;;;6123177;23;20169;-91
2022/10/09 14:41:35;;;;;;;21.77;9.85;;;;;;;;;;6122067;23;20173;-94
2022/10/09 14:44:40;;;;;;;4.50;1.60;;;;;;;;;;6124094;23;20188;-91
2022/10/09 14:47:47;;;;;;;6.70;1.50;;;;;;;;;;6119302;23;20178;-91
2022/10/09 14:50:52;;;;;;;4.80;1.15;;;;;;;;;;6124281;23;20169;-92
2022/10/09 14:53:58;;;;;;;3.90;1.30;;;;;;;;;;6122147;23;20605;-91
2022/10/09 14:57:03;;;;;;;3.25;1.17;;;;;;;;;;6121549;23;20169;-90
2022/10/09 15:00:09;;;;;;;4.10;1.50;;;;;;;;;;6120435;23;20466;-91
2022/10/09 15:03:16;;;;;;;6.63;1.65;;;;;;;;;;6121329;23;20169;-91
2022/10/09 15:06:23;;;;;;;2.72;1.40;;;;;;;;;;6121817;23;20196;-91
2022/10/09 15:09:28;;;;;;;3.95;1.77;;;;;;;;;;6123114;23;20519;-92
2022/10/09 15:12:34;;;;;;;4.63;1.48;;;;;;;;;;6121227;23;20209;-91
2022/10/09 15:15:39;;;;;;;3.08;1.33;;;;;;;;;;6121423;23;20192;-92
2022/10/09 15:18:47;;;;;;;4.30;1.40;;;;;;;;;;6121263;23;20181;-91
2022/10/09 15:21:54;;;;;;;3.17;1.10;;;;;;;;;;6121324;23;20170;-91
2022/10/09 15:25:07;;;;;;;2.28;1.10;;;;;;;;;;6122093;23;20174;-92
2022/10/09 15:28:12;;;;;;;3.15;1.15;;;;;;;;;;6123258;23;20177;-92
2022/10/09 15:31:20;;;;;;;9.02;1.30;;;;;;;;;;6120653;23;20213;-91
2022/10/09 15:34:28;;;;;;;2.20;1.17;;;;;;;;;;6121355;23;20165;-92
2022/10/09 15:37:33;;;;;;;3.38;1.20;;;;;;;;;;6120890;23;20193;-91
2022/10/09 15:40:43;;;;;;;3.45;1.42;;;;;;;;;;6120506;23;20219;-91
2022/10/09 15:43:49;;;;;;;2.42;1.20;;;;;;;;;;6122551;23;20189;-92
2022/10/09 15:46:55;;;;;;;3.75;1.20;;;;;;;;;;6121866;23;20296;-90
2022/10/09 15:50:02;;;;;;;3.10;1.20;;;;;;;;;;6125292;23;20206;-90
2022/10/09 15:53:13;;;;;;;6.45;1.40;;;;;;;;;;6124265;23;20165;-92
2022/10/09 15:56:19;;;;;;;3.47;1.17;;;;;;;;;;6123868;23;20173;-91
2022/10/09 15:59:24;;;;;;;8.07;1.70;;;;;;;;;;6122543;23;20188;-90
2022/10/09 16:02:29;;;;;;;3.60;1.40;;;;;;;;;;6122310;23;20162;-90
2022/10/09 16:05:40;;;;;;;5.38;1.90;;;;;;;;;;6122162;23;20188;-88
2022/10/09 16:08:46;;;;;;;4.55;1.50;;;;;;;;;;6120699;23;20600;-90
2022/10/09 16:11:51;;;;;;;6.60;1.95;;;;;;;;;;6121933;23;20161;-91
2022/10/09 16:15:06;;;;;;;5.85;1.65;;;;;;;;;;6122198;23;20177;-89
2022/10/09 16:18:11;;;;;;;4.88;2.00;;;;;;;;;;6120518;23;20609;-91
2022/10/09 16:21:19;;;;;;;10.07;2.38;;;;;;;;;;6122832;23;20164;-91
2022/10/09 16:24:25;;;;;;;5.63;2.60;;;;;;;;;;6120993;23;20232;-91
2022/10/09 16:27:31;;;;;;;16.95;7.38;;;;;;;;;;6120459;23;20269;-90
2022/10/09 16:30:39;;;;;;;7.10;3.22;;;;;;;;;;6121025;23;20173;-90
2022/10/09 16:33:44;;;;;;;5.32;2.80;;;;;;;;;;6118882;23;20235;-91
2022/10/09 16:36:51;;;;;;;9.73;3.25;;;;;;;;;;6122914;23;20197;-90
2022/10/09 16:39:57;;;;;;;9.70;3.92;;;;;;;;;;6121923;23;20169;-90
2022/10/09 16:43:02;;;;;;;8.40;3.95;;;;;;;;;;6121677;23;20237;-89
2022/10/09 16:46:11;;;;;;;11.88;4.00;;;;;;;;;;6122859;23;20197;-92
2022/10/09 16:49:17;;;;;;;16.42;6.25;;;;;;;;;;6121240;23;20165;-91
2022/10/09 16:52:24;;;;;;;19.33;6.25;;;;;;;;;;6120613;23;20177;-90
2022/10/09 16:55:40;;;;;;;11.73;5.47;;;;;;;;;;6124237;23;20185;-90
2022/10/09 16:58:45;;;;;;;14.75;5.05;;;;;;;;;;6120012;23;20169;-91
2022/10/09 17:01:50;;;;;;;7.30;4.55;;;;;;;;;;6118995;23;20169;-90
2022/10/09 17:04:55;;;;;;;8.77;3.38;;;;;;;;;;6120549;23;20217;-91
2022/10/09 17:08:02;;;;;;;8.10;4.00;;;;;;;;;;6117119;23;20266;-90
2022/10/09 17:11:11;;;;;;;10.50;2.92;;;;;;;;;;6120242;23;20173;-90
2022/10/09 17:14:17;;;;;;;8.73;3.63;;;;;;;;;;6122826;23;20181;-90
2022/10/09 17:17:22;;;;;;;11.63;3.10;;;;;;;;;;6123321;23;20181;-90
2022/10/09 17:20:27;;;;;;;6.20;3.42;;;;;;;;;;6121702;23;20165;-90
2022/10/09 17:23:38;;;;;;;9.50;4.13;;;;;;;;;;6121616;23;20169;-90
2022/10/09 17:26:43;;;;;;;10.23;3.85;;;;;;;;;;6121613;23;20262;-91
2022/10/09 17:29:49;;;;;;;11.35;5.20;;;;;;;;;;6120672;23;20173;-90
2022/10/09 17:32:54;;;;;;;16.08;6.03;;;;;;;;;;6121159;23;20169;-91
2022/10/09 17:36:00;;;;;;;10.90;4.45;;;;;;;;;;6123571;23;20197;-91
2022/10/09 17:39:08;;;;;;;9.65;4.22;;;;;;;;;;6121773;23;20520;-91
2022/10/09 17:42:13;;;;;;;8.85;3.28;;;;;;;;;;6120478;23;20569;-92
2022/10/09 17:45:18;;;;;;;9.57;3.03;;;;;;;;;;6122705;23;20172;-91
2022/10/09 17:48:23;;;;;;;10.38;2.90;;;;;;;;;;6123824;23;20504;-92
2022/10/09 17:51:30;;;;;;;8.30;2.70;;;;;;;;;;6124860;23;20229;-91
2022/10/09 17:54:36;;;;;;;7.28;2.63;;;;;;;;;;6125791;23;20178;-91
2022/10/09 17:57:41;;;;;;;7.53;2.65;;;;;;;;;;6123010;23;20630;-92
2022/10/09 18:00:47;;;;;;;12.07;5.03;;;;;;;;;;6123207;23;20173;-92
2022/10/09 18:03:52;;;;;;;11.23;3.35;;;;;;;;;;6122589;23;20173;-92
2022/10/09 18:06:57;;;;;;;21.35;7.82;;;;;;;;;;6123287;23;20197;-93
2022/10/09 18:10:08;;;;;;;18.35;8.00;;;;;;;;;;6121470;23;20169;-90
2022/10/09 18:13:14;;;;;;;12.07;3.70;;;;;;;;;;6123104;23;20239;-92
2022/10/09 18:16:36;;;;;;;9.20;3.10;;;;;;;;;;6123718;23;20168;-90
2022/10/09 18:19:42;;;;;;;11.73;4.40;;;;;;;;;;6122183;23;20173;-91
2022/10/09 18:22:47;;;;;;;16.55;6.97;;;;;;;;;;6119996;23;20173;-91
2022/10/09 18:26:12;;;;;;;15.73;5.63;;;;;;;;;;6120507;23;20177;-91
2022/10/09 18:29:17;;;;;;;12.70;5.57;;;;;;;;;;6122699;23;20169;-91
2022/10/09 18:32:23;;;;;;;9.38;4.47;;;;;;;;;;6123995;23;20166;-92
2022/10/09 18:35:29;;;;;;;24.77;12.98;;;;;;;;;;6122059;23;20161;-91
2022/10/09 18:38:35;;;;;;;18.85;9.60;;;;;;;;;;6122846;23;20225;-91